createdAt,value
2023-05-08T00:04:29.378Z,6.60
2023-05-08T00:09:31.985Z,6.20
2023-05-08T00:14:34.874Z,6.40
2023-05-08T00:19:37.372Z,6.20
2023-05-08T00:24:40.061Z,7.10
2023-05-08T00:29:43.164Z,5.70
2023-05-08T00:34:45.747Z,6.30
2023-05-08T00:39:48.333Z,5.50
2023-05-08T00:44:51.067Z,5.90
2023-05-08T00:49:53.624Z,5.50
2023-05-08T00:54:56.551Z,4.90
2023-05-08T01:00:03.147Z,5.60
2023-05-08T01:05:06.420Z,5.40
2023-05-08T01:10:09.867Z,5.70
2023-05-08T01:15:18.332Z,5.80
2023-05-08T01:20:53.019Z,5.50
2023-05-08T01:26:15.751Z,6.40
2023-05-08T01:31:50.663Z,5.80
2023-05-08T01:37:03.301Z,6.00
2023-05-08T01:42:28.824Z,6.00
2023-05-08T01:47:37.502Z,5.70
2023-05-08T01:52:48.153Z,5.50
2023-05-08T01:57:53.882Z,5.80
2023-05-08T02:02:58.718Z,5.10
2023-05-08T02:08:04.243Z,6.70
2023-05-08T02:13:08.802Z,6.40
2023-05-08T02:18:13.167Z,6.30
2023-05-08T02:23:17.892Z,6.50
2023-05-08T02:28:21.875Z,5.90
2023-05-08T02:33:26.099Z,6.10
2023-05-08T02:38:30.251Z,6.10
2023-05-08T02:43:33.168Z,5.30
2023-05-08T02:48:47.855Z,6.40
2023-05-08T02:54:10.479Z,6.30
2023-05-08T02:59:31.440Z,6.40
2023-05-08T03:04:47.552Z,5.70
2023-05-08T03:10:05.519Z,4.10
2023-05-08T03:15:15.167Z,4.60
2023-05-08T03:20:19.691Z,4.70
2023-05-08T03:25:23.271Z,4.80
2023-05-08T03:30:27.664Z,4.90
2023-05-08T03:35:32.067Z,4.80
2023-05-08T03:40:38.826Z,4.90
2023-05-08T03:45:41.685Z,4.50
2023-05-08T03:50:45.055Z,4.70
2023-05-08T03:55:47.646Z,4.20
2023-05-08T04:01:11.687Z,4.50
2023-05-08T04:06:22.438Z,5.10
2023-05-08T04:11:58.197Z,5.60
2023-05-08T04:17:04.040Z,6.40
2023-05-08T04:22:10.391Z,5.80
2023-05-08T04:27:13.964Z,5.40
2023-05-08T04:32:17.383Z,5.50
2023-05-08T04:37:25.696Z,5.50
2023-05-08T04:42:29.014Z,6.10
2023-05-08T04:47:31.645Z,6.10
2023-05-08T04:52:34.296Z,6.20
2023-05-08T04:57:36.870Z,6.60
2023-05-08T05:02:39.490Z,6.30
2023-05-08T05:07:42.211Z,6.10
2023-05-08T05:12:44.928Z,6.50
2023-05-08T05:17:47.605Z,6.50
2023-05-08T05:22:50.341Z,12.10
2023-05-08T05:27:53.033Z,10.40
2023-05-08T05:32:55.797Z,9.70
2023-05-08T05:37:58.327Z,9.80
2023-05-08T05:43:00.826Z,10.10
2023-05-08T05:48:03.518Z,10.40
2023-05-08T05:53:06.230Z,9.70
2023-05-08T05:58:09.012Z,9.20
2023-05-08T06:03:12.291Z,8.50
2023-05-08T06:08:16.461Z,9.00
2023-05-08T06:13:19.973Z,8.90
2023-05-08T06:18:22.726Z,6.20
2023-05-08T06:23:26.153Z,4.80
2023-05-08T06:28:28.753Z,5.10
2023-05-08T06:33:34.388Z,6.50
2023-05-08T06:38:36.997Z,5.90
2023-05-08T06:43:39.578Z,5.10
2023-05-08T06:48:42.337Z,5.00
2023-05-08T06:53:44.835Z,5.10
2023-05-08T06:58:56.943Z,4.40
2023-05-08T07:04:04.125Z,7.90
2023-05-08T07:09:06.666Z,5.30
2023-05-08T07:14:09.205Z,6.90
2023-05-08T07:19:11.841Z,6.90
2023-05-08T07:24:14.442Z,6.60
2023-05-08T07:29:16.979Z,7.00
2023-05-08T07:34:19.684Z,6.10
2023-05-08T07:39:22.173Z,4.90
2023-05-08T07:44:25.032Z,4.20
2023-05-08T07:49:27.588Z,2.60
2023-05-08T07:54:30.188Z,2.70
2023-05-08T07:59:32.806Z,2.60
2023-05-08T08:04:35.776Z,3.30
2023-05-08T08:09:38.586Z,2.40
2023-05-08T08:14:41.174Z,2.70
2023-05-08T08:19:43.657Z,2.60
2023-05-08T08:24:46.499Z,2.30
2023-05-08T08:29:49.778Z,2.50
2023-05-08T08:34:52.856Z,2.50
2023-05-08T08:39:56.322Z,2.60
2023-05-08T08:44:59.232Z,2.40
2023-05-08T08:50:04.151Z,2.80
2023-05-08T08:55:09.936Z,2.50
2023-05-08T09:00:13.337Z,2.60
2023-05-08T09:05:16.433Z,2.40
2023-05-08T09:10:20.504Z,2.40
2023-05-08T09:15:23.283Z,2.60
2023-05-08T09:20:26.621Z,2.30
2023-05-08T09:25:47.489Z,2.60
2023-05-08T09:30:57.081Z,2.60
2023-05-08T09:35:59.632Z,2.70
2023-05-08T09:41:18.309Z,2.50
2023-05-08T09:46:22.496Z,2.40
2023-05-08T09:51:26.935Z,2.80
2023-05-08T09:56:36.842Z,2.80
2023-05-08T10:01:39.604Z,2.70
2023-05-08T10:06:42.445Z,3.90
2023-05-08T10:11:55.323Z,2.50
2023-05-08T10:17:00.458Z,2.40
2023-05-08T10:22:04.943Z,3.20
2023-05-08T10:27:17.723Z,2.70
2023-05-08T10:32:22.927Z,2.30
2023-05-08T10:37:29.822Z,2.20
2023-05-08T10:42:36.958Z,3.10
2023-05-08T10:47:51.171Z,2.20
2023-05-08T10:53:02.316Z,2.00
2023-05-08T10:58:26.241Z,2.40
2023-05-08T11:03:33.086Z,2.10
2023-05-08T11:08:49.026Z,2.10
2023-05-08T11:13:55.976Z,2.10
2023-05-08T11:19:16.658Z,2.40
2023-05-08T11:24:34.704Z,2.30
2023-05-08T11:29:38.472Z,2.00
2023-05-08T11:34:44.079Z,2.20
2023-05-08T11:39:47.567Z,2.10
2023-05-08T11:45:04.702Z,2.20
2023-05-08T11:50:12.346Z,1.90
2023-05-08T11:55:15.798Z,2.10
2023-05-08T12:00:18.915Z,2.00
2023-05-08T12:05:28.067Z,2.30
2023-05-08T12:10:30.635Z,2.60
2023-05-08T12:15:33.193Z,2.90
2023-05-08T12:20:36.084Z,2.10
2023-05-08T12:25:39.898Z,2.20
2023-05-08T12:30:42.654Z,2.40
2023-05-08T12:35:45.564Z,2.60
2023-05-08T12:40:57.366Z,2.60
2023-05-08T12:46:01.460Z,2.30
2023-05-08T12:51:05.702Z,2.10
2023-05-08T12:56:08.606Z,1.90
2023-05-08T13:01:13.634Z,2.10
2023-05-08T13:06:21.658Z,2.20
2023-05-08T13:11:34.288Z,2.10
2023-05-08T13:16:44.407Z,2.00
2023-05-08T13:21:47.533Z,2.30
2023-05-08T13:26:50.166Z,2.20
2023-05-08T13:31:53.122Z,1.90
2023-05-08T13:36:55.726Z,2.10
2023-05-08T13:41:58.601Z,2.20
2023-05-08T13:47:01.163Z,2.50
2023-05-08T13:52:03.917Z,2.20
2023-05-08T13:57:06.598Z,2.20
2023-05-08T14:02:09.216Z,2.20
2023-05-08T14:07:11.899Z,2.00
2023-05-08T14:12:14.836Z,2.00
2023-05-08T14:17:17.382Z,2.30
2023-05-08T14:22:20.018Z,2.10
2023-05-08T14:27:22.742Z,2.30
2023-05-08T14:32:25.576Z,2.30
2023-05-08T14:37:28.480Z,2.10
2023-05-08T14:42:31.300Z,2.10
2023-05-08T14:47:33.914Z,2.20
2023-05-08T14:52:37.587Z,1.90
2023-05-08T14:57:40.108Z,2.00
2023-05-08T15:02:43.535Z,2.20
2023-05-08T15:07:46.488Z,2.10
2023-05-08T15:12:49.894Z,2.30
2023-05-08T15:17:52.521Z,2.20
2023-05-08T15:22:55.176Z,2.40
2023-05-08T15:28:00.701Z,2.00
2023-05-08T15:33:04.001Z,2.30
2023-05-08T15:38:07.615Z,1.80
2023-05-08T15:43:11.156Z,2.40
2023-05-08T15:48:13.763Z,2.10
2023-05-08T15:53:16.564Z,2.10
2023-05-08T15:58:19.260Z,2.10
2023-05-08T16:03:22.122Z,2.00
2023-05-08T16:08:25.252Z,2.10
2023-05-08T16:13:28.384Z,2.20
2023-05-08T16:18:30.950Z,2.10
2023-05-08T16:23:33.488Z,2.50
2023-05-08T16:28:36.074Z,2.00
2023-05-08T16:33:39.700Z,2.00
2023-05-08T16:38:42.338Z,2.30
2023-05-08T16:43:44.880Z,2.20
2023-05-08T16:48:48.661Z,2.00
2023-05-08T16:53:51.523Z,1.90
2023-05-08T16:58:56.205Z,2.30
2023-05-08T17:03:58.762Z,2.00
2023-05-08T17:09:01.310Z,2.10
2023-05-08T17:14:03.865Z,2.50
2023-05-08T17:19:06.791Z,2.60
2023-05-08T17:24:09.328Z,2.30
2023-05-08T17:29:11.915Z,2.60
2023-05-08T17:34:14.585Z,2.50
2023-05-08T17:39:19.899Z,2.50
2023-05-08T17:44:22.506Z,2.30
2023-05-08T17:49:25.528Z,2.90
2023-05-08T17:54:28.160Z,2.60
2023-05-08T17:59:30.700Z,2.50
2023-05-08T18:04:33.290Z,2.50
2023-05-08T18:09:35.939Z,2.50
2023-05-08T18:14:38.866Z,2.50
2023-05-08T18:19:41.539Z,3.10
2023-05-08T18:24:45.526Z,3.60
2023-05-08T18:29:48.836Z,3.20
2023-05-08T18:34:52.028Z,4.50
2023-05-08T18:39:54.692Z,5.20
2023-05-08T18:44:57.303Z,3.70
2023-05-08T18:50:00.322Z,4.00
2023-05-08T18:55:04.111Z,3.70
2023-05-08T19:00:07.638Z,3.70
2023-05-08T19:05:10.551Z,4.20
2023-05-08T19:10:13.492Z,5.10
2023-05-08T19:15:16.505Z,5.90
2023-05-08T19:20:19.145Z,6.60
2023-05-08T19:25:22.094Z,4.30
2023-05-08T19:30:24.694Z,4.70
2023-05-08T19:35:27.407Z,4.80
2023-05-08T19:40:31.830Z,5.30
2023-05-08T19:45:35.049Z,6.70
2023-05-08T19:50:37.614Z,10.40
2023-05-08T19:55:40.418Z,6.80
2023-05-08T20:00:42.956Z,5.00
2023-05-08T20:05:46.052Z,4.30
2023-05-08T20:10:49.169Z,4.10
2023-05-08T20:15:54.762Z,3.40
2023-05-08T20:20:57.363Z,3.70
2023-05-08T20:26:00.031Z,4.00
2023-05-08T20:31:02.863Z,3.50
2023-05-08T20:36:05.840Z,3.70
2023-05-08T20:41:08.501Z,3.90
2023-05-08T20:46:11.130Z,3.80
2023-05-08T20:51:15.457Z,3.90
2023-05-08T20:56:19.240Z,3.40
2023-05-08T21:01:21.991Z,3.50
2023-05-08T21:06:24.807Z,4.10
2023-05-08T21:11:27.391Z,4.20
2023-05-08T21:16:30.104Z,4.00
2023-05-08T21:21:32.748Z,3.60
2023-05-08T21:26:35.316Z,4.70
2023-05-08T21:31:37.967Z,4.30
2023-05-08T21:36:40.658Z,4.70
2023-05-08T21:41:44.515Z,4.70
2023-05-08T21:46:48.124Z,4.90
2023-05-08T21:51:50.809Z,5.00
2023-05-08T21:56:53.691Z,5.10
2023-05-08T22:01:56.345Z,4.60
2023-05-08T22:06:58.976Z,4.70
2023-05-08T22:12:01.538Z,5.00
2023-05-08T22:17:04.156Z,4.90
2023-05-08T22:22:06.716Z,4.80
2023-05-08T22:27:09.299Z,4.50
2023-05-08T22:32:12.583Z,4.20
2023-05-08T22:37:17.483Z,4.50
2023-05-08T22:42:20.168Z,4.30
2023-05-08T22:47:22.768Z,4.60
2023-05-08T22:52:25.385Z,4.00
2023-05-08T22:57:27.930Z,4.00
2023-05-08T23:02:35.121Z,4.20
2023-05-08T23:07:37.881Z,4.00
2023-05-08T23:12:40.489Z,4.10
2023-05-08T23:17:43.131Z,4.00
2023-05-08T23:22:45.877Z,4.10
2023-05-08T23:27:49.164Z,3.80
2023-05-08T23:32:51.908Z,4.20
2023-05-08T23:37:54.599Z,4.20
2023-05-08T23:42:57.203Z,4.10
2023-05-08T23:48:00.880Z,4.60
2023-05-08T23:53:03.470Z,4.50
2023-05-08T23:58:07.414Z,4.50
